< < Back
Terminal Aerodrome Forecast


Current Version              Previous Versions:   1  2  3  4  5  6  7  8  9  

Terminal Aerodrome Forecast

720
FTUS44 KBMX 241100
TAFMGM
TAF
KMGM 241120Z 2412/2512 18006KT P6SM BKN080
     FM250800 20007KT P6SM BKN015=



Latest METAR

732
SAUS80 KWBC 250700 RRA
MTRMGM
METAR KMGM 250653Z 00000KT 10SM -RA BKN013 BKN085 OVC110 19/16 A2993 RMK
AO2 RAB45 SLP133 P0000 T01890161


USA.gov is the U.S. government's official web portal to all federal, state and local government web resources and services.